F/V Renaissance II — FMEW — position and weather

sailwx.info

Track history (hours):
 
Tides and Currents Weather Stations Pressure Air Temp Water Temp Dewpoint Dewpoint Depression Visibility Wind Speed Wind Dir Waves Ship Positions

F/V Renaissance II

Last reported at 2015-Mar-05 05:32 UTC. Time now 2015-Mar-05 08:08 UTC.
Position N 46°17' W 002°19'.

Length 18 m.

Type: Fishing. MMSI: 228216600.

Date/timePositionNaut miles runAvg speedWind from/ knotsBaromVisibWave heightAir tempDewpointWater temp
2015-Mar-05 05:32N 46°17' W 002°19'10 5.2
2015-Mar-05 03:33N 46°22' W 002°06'5 4.9
2015-Mar-05 02:33N 46°24' W 001°60'5 4.7
2015-Mar-05 01:33N 46°26' W 001°54'5 4.6
2015-Mar-05 00:33N 46°28' W 001°48'2 1.6
2015-Mar-04 23:33N 46°30' W 001°47'1 1.5
2015-Mar-04 22:33N 46°28' W 001°47'4 3.7
2015-Mar-04 21:34N 46°27' W 001°52'4 3.7
2015-Mar-04 20:33N 46°25' W 001°57'4 3.6
2015-Mar-04 19:33N 46°23' W 002°01'4 4.1
2015-Mar-04 18:34N 46°21' W 002°06'3 0.2
2015-Mar-04 02:33N 46°18' W 002°06'6 5.7
2015-Mar-04 01:33N 46°22' W 001°59'6 5.6
2015-Mar-04 00:34N 46°25' W 001°53'5 5.4
2015-Mar-03 23:33N 46°29' W 001°47'0 0.4
2015-Mar-03 22:34N 46°29' W 001°47'4 4.2
2015-Mar-03 21:34N 46°26' W 001°52'4 4.0
2015-Mar-03 20:34N 46°23' W 001°56'14 1.0
2015-Mar-03 06:33N 46°18' W 002°15'8 8.2
2015-Mar-03 05:34N 46°22' W 002°05'8 8.2
2015-Mar-03 04:34N 46°26' W 001°54'6 6.3
2015-Mar-03 03:33N 46°30' W 001°47'0 0.2
2015-Mar-03 02:33N 46°30' W 001°48'0 0.0
2015-Mar-03 01:34N 46°30' W 001°48'0 0.0
2015-Mar-03 00:33N 46°30' W 001°48'0 0.0
2015-Mar-02 23:33N 46°30' W 001°48'0 0.0
2015-Mar-02 22:33N 46°30' W 001°48'0 0.0
2015-Mar-02 21:34N 46°30' W 001°47'0 0.0
2015-Mar-02 20:33N 46°30' W 001°48'0 0.0
2015-Mar-02 19:34N 46°30' W 001°48'0 0.0
2015-Mar-02 18:33N 46°30' W 001°48'0 0.0
2015-Mar-02 17:33N 46°30' W 001°48'0 0.0
2015-Mar-02 16:33N 46°30' W 001°47'0 0.0
2015-Mar-02 15:34N 46°30' W 001°48'0 0.0
2015-Mar-02 14:33N 46°30' W 001°47'0 0.0
2015-Mar-02 13:33N 46°30' W 001°48'0 0.0
2015-Mar-02 12:33N 46°30' W 001°47'0 0.0
2015-Mar-02 11:34N 46°30' W 001°48'0 0.0
2015-Mar-02 10:33N 46°30' W 001°47'0 0.0
2015-Mar-02 09:34N 46°30' W 001°47'0 0.0
2015-Mar-02 08:34N 46°30' W 001°48'0 0.0
2015-Mar-02 07:33N 46°30' W 001°48'0 0.0
2015-Mar-02 06:33N 46°30' W 001°48'0 0.0
2015-Mar-02 05:33N 46°30' W 001°47'0 0.0
2015-Mar-02 04:33N 46°30' W 001°48'0 0.0
2015-Mar-02 03:33N 46°30' W 001°47'0 0.0
2015-Mar-02 02:33N 46°30' W 001°48'0 0.0
2015-Mar-02 01:34N 46°30' W 001°48'0 0.0
2015-Mar-02 00:34N 46°30' W 001°47'0 0.0
2015-Mar-01 23:33N 46°30' W 001°48'0 0.0
2015-Mar-01 22:33N 46°30' W 001°48'0 0.2
2015-Mar-01 21:33N 46°30' W 001°47'4 3.9
2015-Mar-01 20:33N 46°28' W 001°52'9 9.0
2015-Mar-01 19:33N 46°29' W 002°06'7 5.8
2015-Mar-01 18:19N 46°31' W 002°15'2 0.9
2015-Mar-01 16:33N 46°30' W 002°17'1 1.3
2015-Mar-01 15:33N 46°31' W 002°15'1 0.5
2015-Mar-01 14:33N 46°31' W 002°14'1 1.1
2015-Mar-01 13:17N 46°31' W 002°16'2 2.7
2015-Mar-01 12:33N 46°32' W 002°14'1 1.3
2015-Mar-01 11:32N 46°32' W 002°16'2 1.7
2015-Mar-01 10:15N 46°34' W 002°17'0 0.5
2015-Mar-01 09:33N 46°34' W 002°17'2 1.5
2015-Mar-01 08:17N 46°36' W 002°15'0 0.2
2015-Mar-01 07:19N 46°36' W 002°15'5 7.0
2015-Mar-01 06:34N 46°33' W 002°09'7 7.2
2015-Mar-01 05:34N 46°31' W 001°59'7 7.4
2015-Mar-01 04:34N 46°28' W 001°48'2 1.6
2015-Mar-01 03:34N 46°30' W 001°47'0 0.0
2015-Mar-01 02:33N 46°30' W 001°47'0 0.0
2015-Mar-01 01:34N 46°30' W 001°47'0 0.0
2015-Mar-01 00:33N 46°30' W 001°47'0 0.0
2015-Feb-28 23:34N 46°30' W 001°47'0 0.0
2015-Feb-28 22:33N 46°30' W 001°47'0 0.0
2015-Feb-28 21:33N 46°30' W 001°47'0 0.0
2015-Feb-28 20:34N 46°30' W 001°47'1 0.5
2015-Feb-28 19:34N 46°29' W 001°47'8 7.6
2015-Feb-28 18:34N 46°29' W 001°58'9 8.6
2015-Feb-28 17:33N 46°29' W 002°11'2 1.6
2015-Feb-28 16:33N 46°29' W 002°13'2 2.4
2015-Feb-28 15:33N 46°27' W 002°16'1 1.1
2015-Feb-28 14:25N 46°28' W 002°16'2 0.9
2015-Feb-28 12:15N 46°27' W 002°18'6 0.1
2015-Feb-26 19:16N 46°32' W 002°19'6 8.0
2015-Feb-26 18:33N 46°32' W 002°10'8 8.2
2015-Feb-26 17:33N 46°30' W 001°59'8 3.9
2015-Feb-26 15:33N 46°30' W 001°47'0 0.0
2015-Feb-26 14:33N 46°30' W 001°47'6 5.8
2015-Feb-26 13:33N 46°25' W 001°52'10 8.6
2015-Feb-26 12:25N 46°19' W 002°03'4 1.7
2015-Feb-26 10:19N 46°16' W 002°07'1 0.3
2015-Feb-26 06:13N 46°17' W 002°08'1 0.2
2015-Feb-25 22:15N 46°16' W 002°07'4 2.2
2015-Feb-25 20:21N 46°19' W 002°03'2 2.0
2015-Feb-25 19:32N 46°21' W 002°02'3 2.8
2015-Feb-25 18:34N 46°24' W 002°02'2 2.1
2015-Feb-25 17:33N 46°22' W 002°00'3 2.9
2015-Feb-25 16:33N 46°20' W 002°02'4 3.4
2015-Feb-25 15:22N 46°18' W 002°08'2 0.2
2015-Feb-25 06:13N 46°19' W 002°06'5 7.6
2015-Feb-25 05:34N 46°22' W 001°60'8 7.6
2015-Feb-25 04:34N 46°26' W 001°51'4 4.2
2015-Feb-25 03:34N 46°30' W 001°48'0 0.0
2015-Feb-25 02:34N 46°30' W 001°48'0 0.0
2015-Feb-25 01:34N 46°30' W 001°48'0 0.0
2015-Feb-25 00:33N 46°30' W 001°48'0 0.0
2015-Feb-24 23:33N 46°30' W 001°48'0 0.0
2015-Feb-24 22:33N 46°30' W 001°48'0 0.0
2015-Feb-24 21:33N 46°30' W 001°48'0 0.0
2015-Feb-24 20:34N 46°30' W 001°48'0 0.0
2015-Feb-24 19:33N 46°30' W 001°48'0 0.0
2015-Feb-24 18:34N 46°30' W 001°48'0 0.0
2015-Feb-24 17:34N 46°30' W 001°48'0 0.0
2015-Feb-24 16:34N 46°30' W 001°48'0 0.0
2015-Feb-24 15:33N 46°30' W 001°48'0 0.0
2015-Feb-24 14:33N 46°30' W 001°48'0 0.0
2015-Feb-23 22:26N 46°30' W 001°48'1 1.5
2015-Feb-23 21:33N 46°29' W 001°47'8 8.3
2015-Feb-23 20:33N 46°25' W 001°58'9 8.2
2015-Feb-23 19:30N 46°22' W 002°10'2 0.1
2015-Feb-23 06:29N 46°24' W 002°09'7 7.5
2015-Feb-23 05:33N 46°26' W 001°60'  
Track history (hours):
 
Tides and Currents Weather Stations Pressure Air Temp Water Temp Dewpoint Dewpoint Depression Visibility Wind Speed Wind Dir Waves Ship Positions

F/V Renaissance II

Last reported at 2015-Mar-05 05:32 UTC. Time now 2015-Mar-05 08:08 UTC.
Position N 46°17' W 002°19'.

Length 18 m.

Type: Fishing. MMSI: 228216600.

Date/timePositionNaut miles runAvg speedWind from/ knotsBaromVisibWave heightAir tempDewpointWater temp
2015-Mar-05 05:32N 46°17' W 002°19'10 5.2
2015-Mar-05 03:33N 46°22' W 002°06'5 4.9
2015-Mar-05 02:33N 46°24' W 001°60'5 4.7
2015-Mar-05 01:33N 46°26' W 001°54'5 4.6
2015-Mar-05 00:33N 46°28' W 001°48'2 1.6
2015-Mar-04 23:33N 46°30' W 001°47'1 1.5
2015-Mar-04 22:33N 46°28' W 001°47'4 3.7
2015-Mar-04 21:34N 46°27' W 001°52'4 3.7
2015-Mar-04 20:33N 46°25' W 001°57'4 3.6
2015-Mar-04 19:33N 46°23' W 002°01'4 4.1
2015-Mar-04 18:34N 46°21' W 002°06'3 0.2
2015-Mar-04 02:33N 46°18' W 002°06'6 5.7
2015-Mar-04 01:33N 46°22' W 001°59'6 5.6
2015-Mar-04 00:34N 46°25' W 001°53'5 5.4
2015-Mar-03 23:33N 46°29' W 001°47'0 0.4
2015-Mar-03 22:34N 46°29' W 001°47'4 4.2
2015-Mar-03 21:34N 46°26' W 001°52'4 4.0
2015-Mar-03 20:34N 46°23' W 001°56'14 1.0
2015-Mar-03 06:33N 46°18' W 002°15'8 8.2
2015-Mar-03 05:34N 46°22' W 002°05'8 8.2
2015-Mar-03 04:34N 46°26' W 001°54'6 6.3
2015-Mar-03 03:33N 46°30' W 001°47'0 0.2
2015-Mar-03 02:33N 46°30' W 001°48'0 0.0
2015-Mar-03 01:34N 46°30' W 001°48'0 0.0
2015-Mar-03 00:33N 46°30' W 001°48'0 0.0
2015-Mar-02 23:33N 46°30' W 001°48'0 0.0
2015-Mar-02 22:33N 46°30' W 001°48'0 0.0
2015-Mar-02 21:34N 46°30' W 001°47'0 0.0
2015-Mar-02 20:33N 46°30' W 001°48'0 0.0
2015-Mar-02 19:34N 46°30' W 001°48'0 0.0
2015-Mar-02 18:33N 46°30' W 001°48'0 0.0
2015-Mar-02 17:33N 46°30' W 001°48'0 0.0
2015-Mar-02 16:33N 46°30' W 001°47'0 0.0
2015-Mar-02 15:34N 46°30' W 001°48'0 0.0
2015-Mar-02 14:33N 46°30' W 001°47'0 0.0
2015-Mar-02 13:33N 46°30' W 001°48'0 0.0
2015-Mar-02 12:33N 46°30' W 001°47'0 0.0
2015-Mar-02 11:34N 46°30' W 001°48'0 0.0
2015-Mar-02 10:33N 46°30' W 001°47'0 0.0
2015-Mar-02 09:34N 46°30' W 001°47'0 0.0
2015-Mar-02 08:34N 46°30' W 001°48'0 0.0
2015-Mar-02 07:33N 46°30' W 001°48'0 0.0
2015-Mar-02 06:33N 46°30' W 001°48'0 0.0
2015-Mar-02 05:33N 46°30' W 001°47'0 0.0
2015-Mar-02 04:33N 46°30' W 001°48'0 0.0
2015-Mar-02 03:33N 46°30' W 001°47'0 0.0
2015-Mar-02 02:33N 46°30' W 001°48'0 0.0
2015-Mar-02 01:34N 46°30' W 001°48'0 0.0
2015-Mar-02 00:34N 46°30' W 001°47'0 0.0
2015-Mar-01 23:33N 46°30' W 001°48'0 0.0
2015-Mar-01 22:33N 46°30' W 001°48'0 0.2
2015-Mar-01 21:33N 46°30' W 001°47'4 3.9
2015-Mar-01 20:33N 46°28' W 001°52'9 9.0
2015-Mar-01 19:33N 46°29' W 002°06'7 5.8
2015-Mar-01 18:19N 46°31' W 002°15'2 0.9
2015-Mar-01 16:33N 46°30' W 002°17'1 1.3
2015-Mar-01 15:33N 46°31' W 002°15'1 0.5
2015-Mar-01 14:33N 46°31' W 002°14'1 1.1
2015-Mar-01 13:17N 46°31' W 002°16'2 2.7
2015-Mar-01 12:33N 46°32' W 002°14'1 1.3
2015-Mar-01 11:32N 46°32' W 002°16'2 1.7
2015-Mar-01 10:15N 46°34' W 002°17'0 0.5
2015-Mar-01 09:33N 46°34' W 002°17'2 1.5
2015-Mar-01 08:17N 46°36' W 002°15'0 0.2
2015-Mar-01 07:19N 46°36' W 002°15'5 7.0
2015-Mar-01 06:34N 46°33' W 002°09'7 7.2
2015-Mar-01 05:34N 46°31' W 001°59'7 7.4
2015-Mar-01 04:34N 46°28' W 001°48'2 1.6
2015-Mar-01 03:34N 46°30' W 001°47'0 0.0
2015-Mar-01 02:33N 46°30' W 001°47'0 0.0
2015-Mar-01 01:34N 46°30' W 001°47'0 0.0
2015-Mar-01 00:33N 46°30' W 001°47'0 0.0
2015-Feb-28 23:34N 46°30' W 001°47'0 0.0
2015-Feb-28 22:33N 46°30' W 001°47'0 0.0
2015-Feb-28 21:33N 46°30' W 001°47'0 0.0
2015-Feb-28 20:34N 46°30' W 001°47'1 0.5
2015-Feb-28 19:34N 46°29' W 001°47'8 7.6
2015-Feb-28 18:34N 46°29' W 001°58'9 8.6
2015-Feb-28 17:33N 46°29' W 002°11'2 1.6
2015-Feb-28 16:33N 46°29' W 002°13'2 2.4
2015-Feb-28 15:33N 46°27' W 002°16'1 1.1
2015-Feb-28 14:25N 46°28' W 002°16'2 0.9
2015-Feb-28 12:15N 46°27' W 002°18'6 0.1
2015-Feb-26 19:16N 46°32' W 002°19'6 8.0
2015-Feb-26 18:33N 46°32' W 002°10'8 8.2
2015-Feb-26 17:33N 46°30' W 001°59'8 3.9
2015-Feb-26 15:33N 46°30' W 001°47'0 0.0
2015-Feb-26 14:33N 46°30' W 001°47'6 5.8
2015-Feb-26 13:33N 46°25' W 001°52'10 8.6
2015-Feb-26 12:25N 46°19' W 002°03'4 1.7
2015-Feb-26 10:19N 46°16' W 002°07'1 0.3
2015-Feb-26 06:13N 46°17' W 002°08'1 0.2
2015-Feb-25 22:15N 46°16' W 002°07'4 2.2
2015-Feb-25 20:21N 46°19' W 002°03'2 2.0
2015-Feb-25 19:32N 46°21' W 002°02'3 2.8
2015-Feb-25 18:34N 46°24' W 002°02'2 2.1
2015-Feb-25 17:33N 46°22' W 002°00'3 2.9
2015-Feb-25 16:33N 46°20' W 002°02'4 3.4
2015-Feb-25 15:22N 46°18' W 002°08'2 0.2
2015-Feb-25 06:13N 46°19' W 002°06'5 7.6
2015-Feb-25 05:34N 46°22' W 001°60'8 7.6
2015-Feb-25 04:34N 46°26' W 001°51'4 4.2
2015-Feb-25 03:34N 46°30' W 001°48'0 0.0
2015-Feb-25 02:34N 46°30' W 001°48'0 0.0
2015-Feb-25 01:34N 46°30' W 001°48'0 0.0
2015-Feb-25 00:33N 46°30' W 001°48'0 0.0
2015-Feb-24 23:33N 46°30' W 001°48'0 0.0
2015-Feb-24 22:33N 46°30' W 001°48'0 0.0
2015-Feb-24 21:33N 46°30' W 001°48'0 0.0
2015-Feb-24 20:34N 46°30' W 001°48'0 0.0
2015-Feb-24 19:33N 46°30' W 001°48'0 0.0
2015-Feb-24 18:34N 46°30' W 001°48'0 0.0
2015-Feb-24 17:34N 46°30' W 001°48'0 0.0
2015-Feb-24 16:34N 46°30' W 001°48'0 0.0
2015-Feb-24 15:33N 46°30' W 001°48'0 0.0
2015-Feb-24 14:33N 46°30' W 001°48'0 0.0
2015-Feb-23 22:26N 46°30' W 001°48'1 1.5
2015-Feb-23 21:33N 46°29' W 001°47'8 8.3
2015-Feb-23 20:33N 46°25' W 001°58'9 8.2
2015-Feb-23 19:30N 46°22' W 002°10'2 0.1
2015-Feb-23 06:29N 46°24' W 002°09'7 7.5
2015-Feb-23 05:33N 46°26' W 001°60'  

Dump ship's entire track history